Pagina principale
METAR-TAF:

METAR-TAF

Aeroporti :

Cannes, Francia

latitudine: 43-33N, longitudine: 006-57E, altezza: 3 m

Osservazione

Il bollettino è stato emesso 29 minuti fa, alle 12:30 UTC
Vento calmo
Temperature 15°C
Umidità 63%
Pressione 1022 hPa
Visibilità 10 km o più
Nuvoloso ad un'altezza di 5400 ft

METAR: LFMD 061230Z AUTO 00000KT 9999 BKN054 15/08 Q1022 TEMPO 16010KT

Ora: 13:59 (12:59 UTC)

Previsione

Il bollettino è stato emesso 4 ore e 59 minuti fa, alle 08:00 UTC
Previsione valida dal 06 alle 09 UTC al 07 alle 09 UTC
Vento 5 kt da nord
Visibilità 10 km o più
Nuvoloso ad un'altezza di 4000 ft
Evoluzione graduale
dal 06 alle 09 UTC al 06 alle 11 UTC
Visibilità 10 km o più
nessuna nube inferiore a 1500 m e nessun cumulonembo
Temporaneamente
dal 06 alle 11 UTC al 06 alle 17 UTC
Vento 10 kt da sud/sud-est

TAF: LFMD 060800Z 0609/0709 35005KT 9999 BKN040 BECMG 0609/0611 CAVOK TEMPO 0611/0617 16010KT

Osservazioni e previsioni meteorologiche di più di 4000 aeroporti (messaggi METAR e TAF).

Le stazioni disponibili sono rappresentate dai dischi gialli e rossi sulla carta.

Puntare il mouse per vedere il nome della stazione.

Clicca sopra per visualizzare le osservazioni e previsioni meteorologiche.

Per cambiare la mappa : fare clic sui pulsanti verdi con una croce nera per ingrandire, il pulsante verde con un trattino per diminuire, o sulla freccia verde per le mappe adiacenti.


METAR-TAF: